createdAt,value
2018-02-23T00:01:36.171Z,-2.70
2018-02-23T00:04:04.474Z,-2.70
2018-02-23T00:06:31.977Z,-2.70
2018-02-23T00:08:59.463Z,-2.70
2018-02-23T00:11:27.843Z,-2.70
2018-02-23T00:13:56.114Z,-2.70
2018-02-23T00:16:24.463Z,-2.80
2018-02-23T00:18:51.980Z,-2.80
2018-02-23T00:21:19.506Z,-2.50
2018-02-23T00:23:47.769Z,-2.70
2018-02-23T00:26:16.066Z,-2.60
2018-02-23T00:28:43.592Z,-2.60
2018-02-23T00:31:11.201Z,-2.60
2018-02-23T00:33:38.726Z,-2.60
2018-02-23T00:36:06.988Z,-2.60
2018-02-23T00:38:34.492Z,-2.70
2018-02-23T00:41:02.009Z,-2.70
2018-02-23T00:43:30.262Z,-2.70
2018-02-23T00:45:57.776Z,-2.70
2018-02-23T00:48:25.285Z,-2.70
2018-02-23T00:50:52.802Z,-2.70
2018-02-23T00:53:20.307Z,-2.70
2018-02-23T00:55:47.825Z,-2.70
2018-02-23T00:58:15.316Z,-2.70
2018-02-23T01:00:43.619Z,-2.70
2018-02-23T01:03:11.180Z,-2.80
2018-02-23T01:05:38.679Z,-2.70
2018-02-23T01:08:06.303Z,-2.80
2018-02-23T01:10:33.860Z,-2.70
2018-02-23T01:13:01.384Z,-2.70
2018-02-23T01:15:29.647Z,-2.50
2018-02-23T01:17:57.135Z,-2.50
2018-02-23T01:20:24.701Z,-2.50
2018-02-23T01:22:52.190Z,-2.60
2018-02-23T01:25:19.704Z,-2.50
2018-02-23T01:27:47.972Z,-2.80
2018-02-23T01:30:16.260Z,-2.80
2018-02-23T01:32:43.812Z,-2.80
2018-02-23T01:35:11.316Z,-2.90
2018-02-23T01:37:38.937Z,-2.90
2018-02-23T01:40:06.461Z,-2.80
2018-02-23T01:42:33.955Z,-2.70
2018-02-23T01:45:01.496Z,-2.80
2018-02-23T01:47:29.769Z,-2.70
2018-02-23T01:49:58.040Z,-2.80
2018-02-23T01:52:26.299Z,-2.80
2018-02-23T01:54:53.788Z,-2.90
2018-02-23T01:57:21.300Z,-2.80
2018-02-23T01:59:50.325Z,-2.80
2018-02-23T02:02:18.720Z,-2.90
2018-02-23T02:04:46.246Z,-2.90
2018-02-23T02:07:14.620Z,-2.90
2018-02-23T02:09:58.773Z,-3.00
2018-02-23T02:23:55.475Z,-2.90
2018-02-23T02:40:44.554Z,-2.80
2018-02-23T02:43:12.123Z,-2.90
2018-02-23T02:45:39.661Z,-2.90
2018-02-23T02:48:07.169Z,-2.80
2018-02-23T02:50:34.660Z,-2.90
2018-02-23T02:53:02.960Z,-3.00
2018-02-23T02:55:30.461Z,-3.00
2018-02-23T02:57:57.952Z,-3.10
2018-02-23T03:00:27.222Z,-2.90
2018-02-23T03:02:54.745Z,-2.90
2018-02-23T03:05:22.269Z,-2.80
2018-02-23T03:07:49.768Z,-2.90
2018-02-23T03:10:17.280Z,-2.80
2018-02-23T03:12:44.893Z,-2.90
2018-02-23T03:15:12.500Z,-3.00
2018-02-23T03:17:40.017Z,-2.80
2018-02-23T03:20:08.289Z,-3.00
2018-02-23T03:22:35.784Z,-3.00
2018-02-23T03:25:04.068Z,-2.80
2018-02-23T03:27:31.555Z,-2.80
2018-02-23T03:29:59.198Z,-2.70
2018-02-23T03:32:26.756Z,-3.00
2018-02-23T03:34:54.261Z,-3.00
2018-02-23T03:37:21.751Z,-2.90
2018-02-23T03:39:49.271Z,-2.90
2018-02-23T03:42:16.866Z,-2.90
2018-02-23T03:44:44.378Z,-2.90
2018-02-23T03:47:11.871Z,-2.90
2018-02-23T03:49:40.319Z,-2.90
2018-02-23T03:52:07.863Z,-2.90
2018-02-23T03:54:35.360Z,-2.70
2018-02-23T03:57:03.762Z,-2.70
2018-02-23T03:59:31.265Z,-2.80
2018-02-23T04:01:58.781Z,-2.90
2018-02-23T04:04:26.316Z,-2.90
2018-02-23T04:06:54.597Z,-3.00
2018-02-23T04:09:22.167Z,-3.00
2018-02-23T04:11:49.679Z,-2.90
2018-02-23T04:14:17.171Z,-2.90
2018-02-23T04:16:44.685Z,-3.00
2018-02-23T04:19:12.199Z,-2.90
2018-02-23T04:21:39.700Z,-2.90
2018-02-23T04:24:07.211Z,-3.10
2018-02-23T04:26:34.729Z,-3.00
2018-02-23T04:29:03.019Z,-3.00
2018-02-23T04:31:31.275Z,-3.00
2018-02-23T04:33:59.577Z,-3.00
2018-02-23T04:36:27.118Z,-3.00
2018-02-23T04:38:55.387Z,-3.00
2018-02-23T04:41:23.664Z,-2.90
2018-02-23T04:43:51.931Z,-3.00
2018-02-23T04:46:19.416Z,-3.10
2018-02-23T04:48:46.919Z,-2.80
2018-02-23T04:51:14.427Z,-2.90
2018-02-23T04:53:41.948Z,-3.00
2018-02-23T04:56:09.439Z,-3.10
2018-02-23T04:58:36.937Z,-3.20
2018-02-23T05:01:04.436Z,-3.20
2018-02-23T05:03:32.750Z,-2.90
2018-02-23T05:06:00.240Z,-3.00
2018-02-23T05:08:27.751Z,-3.00
2018-02-23T05:10:55.291Z,-3.00
2018-02-23T05:13:23.554Z,-2.90
2018-02-23T05:15:51.844Z,-2.80
2018-02-23T05:18:19.343Z,-2.90
2018-02-23T05:20:46.869Z,-2.90
2018-02-23T05:23:14.422Z,-3.10
2018-02-23T05:25:41.924Z,-3.00
2018-02-23T05:28:09.419Z,-2.90
2018-02-23T05:30:37.723Z,-2.90
2018-02-23T05:33:05.243Z,-3.00
2018-02-23T05:35:33.529Z,-3.20
2018-02-23T05:38:01.795Z,-3.20
2018-02-23T05:40:31.065Z,-3.00
2018-02-23T05:42:58.663Z,-3.00
2018-02-23T05:45:26.188Z,-2.80
2018-02-23T05:47:53.683Z,-3.10
2018-02-23T05:50:21.181Z,-3.20
2018-02-23T05:52:48.694Z,-3.20
2018-02-23T05:55:16.254Z,-3.10
2018-02-23T05:57:43.772Z,-3.10
2018-02-23T06:00:11.268Z,-3.10
2018-02-23T06:02:38.760Z,-3.20
2018-02-23T06:05:06.264Z,-3.40
2018-02-23T06:07:34.525Z,-3.30
2018-02-23T06:10:02.888Z,-3.20
2018-02-23T06:12:30.385Z,-3.30
2018-02-23T06:14:58.644Z,-3.30
2018-02-23T06:17:32.739Z,-3.10
2018-02-23T06:20:06.067Z,-3.20
2018-02-23T06:22:34.233Z,-3.20
2018-02-23T06:25:01.726Z,-3.10
2018-02-23T06:27:29.249Z,-3.20
2018-02-23T06:29:56.757Z,-3.10
2018-02-23T06:32:24.247Z,-3.10
2018-02-23T06:34:52.528Z,-3.00
2018-02-23T06:37:20.797Z,-3.10
2018-02-23T06:39:49.081Z,-3.20
2018-02-23T06:42:16.663Z,-3.30
2018-02-23T06:44:44.245Z,-3.20
2018-02-23T06:47:12.511Z,-3.20
2018-02-23T06:49:40.021Z,-3.10
2018-02-23T06:52:08.310Z,-3.10
2018-02-23T06:54:35.803Z,-3.10
2018-02-23T06:57:03.358Z,-3.10
2018-02-23T06:59:30.857Z,-3.30
2018-02-23T07:01:59.134Z,-3.30
2018-02-23T07:04:27.407Z,-3.30
2018-02-23T07:06:55.678Z,-3.40
2018-02-23T07:09:23.163Z,-3.40
2018-02-23T07:11:50.669Z,-3.20
2018-02-23T07:14:18.291Z,-3.30
2018-02-23T07:16:45.788Z,-3.40
2018-02-23T07:19:13.285Z,-3.30
2018-02-23T07:21:40.801Z,-3.30
2018-02-23T07:24:08.405Z,-3.30
2018-02-23T07:26:35.965Z,-3.20
2018-02-23T07:29:03.526Z,-3.00
2018-02-23T07:31:31.075Z,-3.00
2018-02-23T07:33:58.578Z,-3.10
2018-02-23T07:36:26.077Z,-3.10
2018-02-23T07:38:54.344Z,-3.20
2018-02-23T07:41:21.916Z,-3.20
2018-02-23T07:43:50.194Z,-3.20
2018-02-23T07:46:17.700Z,-3.30
2018-02-23T07:48:45.213Z,-3.20
2018-02-23T07:51:13.654Z,-3.10
2018-02-23T07:53:41.266Z,-3.00
2018-02-23T07:56:08.790Z,-3.00
2018-02-23T07:58:37.089Z,-3.10
2018-02-23T08:01:04.625Z,-3.10
2018-02-23T08:03:32.909Z,-3.00
2018-02-23T08:06:01.190Z,-3.20
2018-02-23T08:08:28.713Z,-3.20
2018-02-23T08:10:56.322Z,-2.60
2018-02-23T08:13:23.973Z,-1.90
2018-02-23T08:15:51.504Z,-1.90
2018-02-23T08:18:19.785Z,-1.40
2018-02-23T08:20:48.063Z,-1.60
2018-02-23T08:23:16.316Z,-1.60
2018-02-23T08:25:43.832Z,-1.70
2018-02-23T08:28:11.362Z,-1.30
2018-02-23T08:30:38.954Z,-1.30
2018-02-23T08:33:06.485Z,-1.30
2018-02-23T08:35:34.051Z,-1.50
2018-02-23T08:38:02.081Z,-2.40
2018-02-23T08:40:30.511Z,-2.50
2018-02-23T08:42:58.141Z,-2.70
2018-02-23T08:45:25.652Z,-3.00
2018-02-23T08:47:53.189Z,-3.00
2018-02-23T08:50:20.688Z,-3.00
2018-02-23T08:52:48.287Z,-2.90
2018-02-23T08:55:15.810Z,-2.80
2018-02-23T08:57:44.073Z,-3.10
2018-02-23T09:00:20.594Z,-3.20
2018-02-23T09:02:48.087Z,-3.10
2018-02-23T09:05:15.677Z,-3.10
2018-02-23T09:07:43.924Z,-2.90
2018-02-23T09:10:11.419Z,-2.90
2018-02-23T09:12:38.968Z,-3.00
2018-02-23T09:15:07.236Z,-3.10
2018-02-23T09:17:35.498Z,-3.00
2018-02-23T09:20:03.777Z,-3.00
2018-02-23T09:22:32.053Z,-2.80
2018-02-23T09:25:00.440Z,-2.80
2018-02-23T09:27:27.936Z,-2.90
2018-02-23T09:29:55.427Z,-2.80
2018-02-23T09:32:34.759Z,-3.00
2018-02-23T09:35:02.361Z,-3.00
2018-02-23T09:37:29.850Z,-3.00
2018-02-23T09:39:57.395Z,-2.90
2018-02-23T09:42:24.925Z,-2.90
2018-02-23T09:44:52.457Z,-2.70
2018-02-23T09:47:20.738Z,-2.80
2018-02-23T09:49:49.012Z,-2.80
2018-02-23T09:52:17.286Z,-2.80
2018-02-23T09:54:45.589Z,-2.60
2018-02-23T09:57:13.099Z,-2.70
2018-02-23T09:59:41.394Z,-2.70
2018-02-23T10:02:09.677Z,-2.70
2018-02-23T10:04:37.957Z,-2.50
2018-02-23T10:07:05.522Z,-2.60
2018-02-23T10:09:33.034Z,-2.50
2018-02-23T10:12:00.540Z,-2.70
2018-02-23T10:14:28.032Z,-2.60
2018-02-23T10:16:55.643Z,-2.60
2018-02-23T10:19:23.145Z,-2.70
2018-02-23T10:21:50.674Z,-2.70
2018-02-23T10:24:18.188Z,-2.60
2018-02-23T10:26:45.772Z,-2.70
2018-02-23T10:29:13.325Z,-2.60
2018-02-23T10:31:41.593Z,-2.20
2018-02-23T10:34:09.902Z,-2.20
2018-02-23T10:36:37.387Z,-2.30
2018-02-23T10:39:04.895Z,-2.10
2018-02-23T10:41:32.403Z,-2.40
2018-02-23T10:43:59.935Z,-2.50
2018-02-23T10:46:27.433Z,-2.30
2018-02-23T10:48:55.045Z,-2.20
2018-02-23T10:51:22.561Z,-2.40
2018-02-23T10:53:50.862Z,-2.50
2018-02-23T10:56:18.385Z,-2.50
2018-02-23T10:58:46.659Z,-2.30
2018-02-23T11:01:14.244Z,-2.30
2018-02-23T11:03:41.768Z,-2.20
2018-02-23T11:06:09.260Z,-2.10
2018-02-23T11:08:36.840Z,-2.30
2018-02-23T11:11:04.386Z,-2.40
2018-02-23T11:13:31.964Z,-2.50
2018-02-23T11:15:59.463Z,-2.60
2018-02-23T11:18:26.957Z,-2.50
2018-02-23T11:20:54.486Z,-2.50
2018-02-23T11:23:22.784Z,-2.40
2018-02-23T11:25:50.275Z,-2.40
2018-02-23T11:28:17.793Z,-2.40
2018-02-23T11:30:45.330Z,-2.40
2018-02-23T11:33:13.593Z,-2.20
2018-02-23T11:35:41.109Z,-2.30
2018-02-23T11:38:08.605Z,-2.50
2018-02-23T11:40:36.895Z,-2.20
2018-02-23T11:43:05.165Z,-2.30
2018-02-23T11:45:33.480Z,-2.30
2018-02-23T11:48:00.982Z,-2.30
2018-02-23T11:50:28.594Z,-2.30
2018-02-23T11:52:56.113Z,-2.30
2018-02-23T11:55:24.423Z,-2.20
2018-02-23T11:57:51.925Z,-2.20
2018-02-23T12:00:21.056Z,-2.20
2018-02-23T12:02:49.345Z,-2.20
2018-02-23T12:05:16.849Z,-2.20
2018-02-23T12:07:44.344Z,-2.30
2018-02-23T12:10:12.632Z,-2.30
2018-02-23T12:12:40.150Z,-2.40
2018-02-23T12:15:07.656Z,-2.30
2018-02-23T12:17:35.174Z,-2.50
2018-02-23T12:20:03.448Z,-2.40
2018-02-23T12:22:30.954Z,-2.40
2018-02-23T12:24:58.583Z,-2.30
2018-02-23T12:27:26.889Z,-2.30
2018-02-23T12:29:54.418Z,-2.40
2018-02-23T12:32:21.908Z,-2.30
2018-02-23T12:34:49.400Z,-2.40
2018-02-23T12:37:16.927Z,-2.40
2018-02-23T12:39:44.425Z,-2.50
2018-02-23T12:42:12.785Z,-2.30
2018-02-23T12:44:40.307Z,-2.40
2018-02-23T12:47:07.801Z,-2.20
2018-02-23T12:49:35.392Z,-2.10
2018-02-23T12:52:02.907Z,-2.10
2018-02-23T12:54:30.443Z,-2.10
2018-02-23T12:56:57.955Z,-2.00
2018-02-23T12:59:25.477Z,-1.90
2018-02-23T13:01:52.962Z,-1.80
2018-02-23T13:04:21.228Z,-1.90
2018-02-23T13:06:49.488Z,-2.10
2018-02-23T13:09:17.009Z,-2.20
2018-02-23T13:11:44.516Z,-2.30
2018-02-23T13:14:12.884Z,-2.10
2018-02-23T13:16:40.393Z,-2.20
2018-02-23T13:19:07.896Z,-2.10
2018-02-23T13:21:35.403Z,-2.00
2018-02-23T13:24:02.896Z,-2.20
2018-02-23T13:26:30.425Z,-2.10
2018-02-23T13:28:57.919Z,-2.10
2018-02-23T13:31:25.425Z,-2.10
2018-02-23T13:33:52.948Z,-2.30
2018-02-23T13:36:21.202Z,-2.10
2018-02-23T13:38:48.819Z,-2.20
2018-02-23T13:41:21.964Z,-2.10
2018-02-23T13:43:49.471Z,-2.10
2018-02-23T13:46:16.963Z,-2.00
2018-02-23T13:48:44.490Z,-1.70
2018-02-23T13:51:11.980Z,-1.90
2018-02-23T13:53:45.637Z,-2.00
2018-02-23T13:56:13.179Z,-2.00
2018-02-23T13:58:40.727Z,-2.00
2018-02-23T14:01:08.991Z,-2.00
2018-02-23T14:03:37.267Z,-1.90
2018-02-23T14:06:05.576Z,-1.80
2018-02-23T14:08:33.079Z,-1.90
2018-02-23T14:11:00.613Z,-1.90
2018-02-23T14:13:28.112Z,-1.80
2018-02-23T14:15:56.413Z,-1.80
2018-02-23T14:18:23.923Z,-1.90
2018-02-23T14:20:51.432Z,-1.80
2018-02-23T14:23:18.957Z,-1.90
2018-02-23T14:25:47.237Z,-1.80
2018-02-23T14:28:15.757Z,-1.80
2018-02-23T14:30:43.257Z,-1.90
2018-02-23T14:33:10.772Z,-1.80
2018-02-23T14:35:38.267Z,-1.60
2018-02-23T14:38:05.769Z,-1.50
2018-02-23T14:40:33.298Z,-1.80
2018-02-23T14:43:01.570Z,-1.70
2018-02-23T14:45:29.885Z,-1.60
2018-02-23T14:47:57.400Z,-1.70
2018-02-23T14:50:37.429Z,-1.60
2018-02-23T14:53:04.936Z,-1.60
2018-02-23T14:55:32.485Z,-1.50
2018-02-23T14:58:00.038Z,-1.70
2018-02-23T15:00:27.557Z,-1.70
2018-02-23T15:02:55.165Z,-1.60
2018-02-23T15:05:22.738Z,-1.60
2018-02-23T15:07:50.529Z,-1.70
2018-02-23T15:10:18.991Z,-1.70
2018-02-23T15:12:46.485Z,-1.70
2018-02-23T15:15:14.052Z,-1.70
2018-02-23T15:17:42.368Z,-1.60
2018-02-23T15:20:09.919Z,-1.70
2018-02-23T15:22:37.425Z,-1.50
2018-02-23T15:25:05.026Z,-1.50
2018-02-23T15:27:32.679Z,-1.40
2018-02-23T15:30:00.961Z,-1.40
2018-02-23T15:32:29.287Z,-1.50
2018-02-23T15:34:56.972Z,-1.40
2018-02-23T15:37:25.224Z,-1.40
2018-02-23T15:39:52.820Z,-1.40
2018-02-23T15:42:20.351Z,-1.30
2018-02-23T15:44:47.952Z,-1.30
2018-02-23T15:47:15.414Z,-1.30
2018-02-23T15:49:48.467Z,-1.30
2018-02-23T15:52:16.751Z,-1.20
2018-02-23T15:54:44.268Z,-1.30
2018-02-23T15:57:26.464Z,-1.20
2018-02-23T15:59:53.968Z,-1.20
2018-02-23T16:02:22.264Z,-1.30
2018-02-23T16:04:49.774Z,-1.40
2018-02-23T16:07:17.419Z,-1.30
2018-02-23T16:09:45.000Z,-1.50
2018-02-23T16:12:12.494Z,-1.40
2018-02-23T16:14:40.013Z,-1.30
2018-02-23T16:17:08.289Z,-1.50
2018-02-23T16:19:36.565Z,-1.40
2018-02-23T16:22:04.841Z,-1.40
2018-02-23T16:24:33.158Z,-1.30
2018-02-23T16:27:00.741Z,-1.40
2018-02-23T16:29:28.242Z,-1.50
2018-02-23T16:31:56.544Z,-1.40
2018-02-23T16:34:24.052Z,-1.50
2018-02-23T16:36:51.967Z,-1.40
2018-02-23T16:39:19.498Z,-1.30
2018-02-23T16:41:47.819Z,-1.40
2018-02-23T16:44:15.316Z,-1.40
2018-02-23T16:46:42.823Z,-1.30
2018-02-23T16:49:10.370Z,-1.40
2018-02-23T16:51:37.919Z,-1.30
2018-02-23T16:54:05.437Z,-1.40
2018-02-23T16:56:33.031Z,-1.40
2018-02-23T16:59:00.573Z,-1.40
2018-02-23T17:01:28.842Z,-1.50
2018-02-23T17:03:57.111Z,-1.30
2018-02-23T17:06:25.430Z,-1.30
2018-02-23T17:08:52.937Z,-1.40
2018-02-23T17:11:20.509Z,-1.20
2018-02-23T17:13:48.801Z,-1.30
2018-02-23T17:16:16.326Z,-1.40
2018-02-23T17:18:43.828Z,-1.30
2018-02-23T17:21:11.342Z,-1.10
2018-02-23T17:23:38.843Z,-1.10
2018-02-23T17:26:06.343Z,-1.00
2018-02-23T17:28:34.027Z,-1.10
2018-02-23T17:31:02.299Z,-1.10
2018-02-23T17:33:30.567Z,-1.10
2018-02-23T17:35:58.075Z,-1.10
2018-02-23T17:38:25.587Z,-1.10
2018-02-23T17:40:55.512Z,-1.10
2018-02-23T17:43:23.145Z,-1.10
2018-02-23T17:45:50.658Z,-1.10
2018-02-23T17:48:18.196Z,-1.10
2018-02-23T17:50:45.753Z,-1.20
2018-02-23T17:53:13.309Z,-1.10
2018-02-23T17:55:40.821Z,-1.20
2018-02-23T17:58:08.407Z,-1.10
2018-02-23T18:00:36.683Z,-1.10
2018-02-23T18:03:04.972Z,-1.10
2018-02-23T18:05:32.459Z,-1.10
2018-02-23T18:08:00.102Z,-1.10
2018-02-23T18:10:28.667Z,-1.00
2018-02-23T18:12:56.227Z,-1.10
2018-02-23T18:15:23.735Z,-1.10
2018-02-23T18:17:51.240Z,-1.10
2018-02-23T18:20:18.733Z,-1.10
2018-02-23T18:22:46.398Z,-1.00
2018-02-23T18:25:13.891Z,-0.90
2018-02-23T18:27:42.164Z,-1.00
2018-02-23T18:30:09.772Z,-1.00
2018-02-23T18:32:37.345Z,-1.00
2018-02-23T18:35:04.869Z,-1.00
2018-02-23T18:37:32.372Z,-0.90
2018-02-23T18:39:59.905Z,-1.00
2018-02-23T18:42:27.417Z,-1.10
2018-02-23T18:44:55.609Z,-1.10
2018-02-23T18:47:23.482Z,-1.00
2018-02-23T18:49:51.018Z,-1.00
2018-02-23T18:52:19.279Z,-1.10
2018-02-23T18:54:54.252Z,-0.90
2018-02-23T18:57:15.102Z,-1.00
2018-02-23T18:59:42.612Z,-1.10
2018-02-23T19:02:10.212Z,-1.10
2018-02-23T19:04:37.739Z,-1.00
2018-02-23T19:07:06.053Z,-1.10
2018-02-23T19:09:33.593Z,-1.20
2018-02-23T19:12:01.116Z,-1.00
2018-02-23T19:14:28.645Z,-1.10
2018-02-23T19:16:56.913Z,-1.00
2018-02-23T19:19:25.191Z,-0.90
2018-02-23T19:21:53.459Z,-1.00
2018-02-23T19:24:21.897Z,-1.00
2018-02-23T19:26:49.968Z,-1.10
2018-02-23T19:29:17.673Z,-1.00
2018-02-23T19:31:46.302Z,-1.10
2018-02-23T19:34:14.077Z,-1.20
2018-02-23T19:36:51.971Z,-1.00
2018-02-23T19:39:19.810Z,-1.10
2018-02-23T19:41:47.478Z,-1.10
2018-02-23T19:44:15.102Z,-1.10
2018-02-23T19:46:42.783Z,-1.10
2018-02-23T19:49:10.638Z,-1.10
2018-02-23T19:51:48.339Z,-1.20
2018-02-23T19:54:17.132Z,-1.20
2018-02-23T19:56:44.961Z,-1.20
2018-02-23T19:59:12.643Z,-1.20
2018-02-23T20:01:40.440Z,-1.10
2018-02-23T20:04:08.803Z,-1.10
2018-02-23T20:06:47.874Z,-1.10
2018-02-23T20:09:28.503Z,-1.00
2018-02-23T20:11:56.862Z,-1.10
2018-02-23T20:14:24.909Z,-1.00
2018-02-23T20:16:53.374Z,-1.00
2018-02-23T20:19:21.192Z,-1.00
2018-02-23T20:21:51.057Z,-1.10
2018-02-23T20:24:29.414Z,-1.20
2018-02-23T20:26:57.838Z,-1.20
2018-02-23T20:29:25.498Z,-1.20
2018-02-23T20:32:03.482Z,-1.20
2018-02-23T20:34:31.706Z,-1.20
2018-02-23T20:36:59.690Z,-1.30
2018-02-23T20:39:27.394Z,-1.40
2018-02-23T20:41:55.061Z,-1.40
2018-02-23T20:44:22.926Z,-1.40
2018-02-23T20:46:51.124Z,-1.40
2018-02-23T20:49:28.760Z,-1.40
2018-02-23T20:51:57.314Z,-1.30
2018-02-23T20:54:26.495Z,-1.40
2018-02-23T20:56:54.253Z,-1.40
2018-02-23T20:59:22.011Z,-1.40
2018-02-23T21:01:50.984Z,-1.40
2018-02-23T21:04:18.826Z,-1.40
2018-02-23T21:06:47.233Z,-1.50
2018-02-23T21:09:14.963Z,-1.50
2018-02-23T21:11:43.058Z,-1.50
2018-02-23T21:14:10.794Z,-1.40
2018-02-23T21:16:49.964Z,-1.40
2018-02-23T21:19:18.925Z,-1.50
2018-02-23T21:21:46.883Z,-1.50
2018-02-23T21:24:15.267Z,-1.60
2018-02-23T21:26:42.969Z,-1.50
2018-02-23T21:29:11.027Z,-1.50
2018-02-23T21:31:38.670Z,-1.50
2018-02-23T21:34:06.337Z,-1.50
2018-02-23T21:36:34.113Z,-1.50
2018-02-23T21:39:01.654Z,-1.60
2018-02-23T21:44:25.319Z,-1.60
2018-02-23T21:46:52.883Z,-1.50
2018-02-23T21:49:20.376Z,-1.50
2018-02-23T21:51:47.873Z,-1.50
2018-02-23T21:54:16.148Z,-1.60
2018-02-23T21:56:44.445Z,-1.70
2018-02-23T21:59:11.947Z,-1.70
2018-02-23T22:01:39.578Z,-1.70
2018-02-23T22:04:07.186Z,-1.50
2018-02-23T22:06:34.788Z,-1.70
2018-02-23T22:09:02.280Z,-1.70
2018-02-23T22:11:29.794Z,-1.70
2018-02-23T22:13:57.343Z,-1.70
2018-02-23T22:16:24.843Z,-1.70
2018-02-23T22:18:52.366Z,-1.60
2018-02-23T22:21:19.878Z,-1.60
2018-02-23T22:23:47.371Z,-1.60
2018-02-23T22:26:14.935Z,-1.70
2018-02-23T22:28:42.459Z,-1.60
2018-02-23T22:31:10.724Z,-1.70
2018-02-23T22:33:38.239Z,-1.80
2018-02-23T22:36:05.727Z,-1.70
2018-02-23T22:38:33.231Z,-1.60
2018-02-23T22:41:00.747Z,-1.80
2018-02-23T22:43:28.347Z,-1.80
2018-02-23T22:45:55.868Z,-1.80
2018-02-23T22:48:24.151Z,-1.70
2018-02-23T22:50:52.429Z,-1.80
2018-02-23T22:53:20.713Z,-1.80
2018-02-23T22:55:49.102Z,-1.80
2018-02-23T22:58:16.666Z,-1.80
2018-02-23T23:00:44.163Z,-1.70
2018-02-23T23:03:11.688Z,-1.90
2018-02-23T23:05:39.296Z,-2.00
2018-02-23T23:08:06.953Z,-1.90
2018-02-23T23:10:34.438Z,-1.90
2018-02-23T23:13:02.719Z,-1.80
2018-02-23T23:15:30.224Z,-1.90
2018-02-23T23:17:57.725Z,-1.80
2018-02-23T23:20:26.004Z,-1.70
2018-02-23T23:22:53.584Z,-1.80
2018-02-23T23:25:21.080Z,-1.70
2018-02-23T23:27:48.589Z,-1.80
2018-02-23T23:30:16.139Z,-1.80
2018-02-23T23:32:43.676Z,-1.80
2018-02-23T23:35:11.984Z,-1.70
2018-02-23T23:37:39.492Z,-1.80
2018-02-23T23:40:07.002Z,-1.80
2018-02-23T23:42:34.537Z,-1.90
2018-02-23T23:45:02.055Z,-1.80
2018-02-23T23:47:29.552Z,-1.70
2018-02-23T23:49:57.073Z,-1.80
2018-02-23T23:52:24.581Z,-1.80
2018-02-23T23:54:52.068Z,-1.90
2018-02-23T23:57:19.579Z,-1.70
2018-02-23T23:59:47.095Z,-1.90
